Redlawn, Texas
Current Conditions -  °F | °C
As of 5:15 AM on Sunday 23 Nov 2014 (Local Time) from KJSO Reporting Station
Light Rain Light Rain  
Wind Chill: 17°   Ceiling: 600
Heat Index: 17°   Visibility: 10mi
Dew Point: 17°   Wind: 8mph
Humidity: 96%   Direction: 190°S
Pressure: 29.61"   Gusts: NA
Location:  31.6384°N, 95.0772°W
Report Text: KJSO 231115Z AUTO 19007KT 10SM -RA OVC006 17/16 A2961 RMK AO2 T01710165
Loading
Personal Weather Stations






























Interactive Weather Map New forecast layout! Learn more

10-Day Weather Forecast

Advertisements
Track Severe Weather on mobile